sensor_id;sensor_type;location;lat;lon;timestamp;pressure;altitude;pressure_sealevel;temperature;humidity
76832;BME280;65792;52.880;13.012;2022-12-29T00:04:11;100218.78;;;5.59;100.00
76832;BME280;65792;52.880;13.012;2022-12-29T00:06:37;100208.53;;;5.75;99.98
76832;BME280;65792;52.880;13.012;2022-12-29T00:09:03;100216.53;;;5.68;99.47
76832;BME280;65792;52.880;13.012;2022-12-29T00:11:28;100196.19;;;5.65;99.85
76832;BME280;65792;52.880;13.012;2022-12-29T00:13:54;100205.38;;;5.69;100.00
76832;BME280;65792;52.880;13.012;2022-12-29T00:16:44;100198.69;;;5.83;98.68
76832;BME280;65792;52.880;13.012;2022-12-29T00:19:10;100189.75;;;5.74;99.30
76832;BME280;65792;52.880;13.012;2022-12-29T00:21:57;100185.94;;;5.81;99.37
76832;BME280;65792;52.880;13.012;2022-12-29T00:24:42;100184.78;;;5.71;100.00
76832;BME280;65792;52.880;13.012;2022-12-29T00:27:27;100182.31;;;5.69;100.00
76832;BME280;65792;52.880;13.012;2022-12-29T00:30:16;100178.34;;;5.80;100.00
76832;BME280;65792;52.880;13.012;2022-12-29T00:33:12;100184.78;;;5.87;99.56
76832;BME280;65792;52.880;13.012;2022-12-29T00:38:53;100182.47;;;5.66;100.00
76832;BME280;65792;52.880;13.012;2022-12-29T00:41:39;100184.28;;;5.64;100.00
76832;BME280;65792;52.880;13.012;2022-12-29T00:44:22;100164.78;;;5.78;100.00
76832;BME280;65792;52.880;13.012;2022-12-29T00:46:48;100175.53;;;5.68;100.00
76832;BME280;65792;52.880;13.012;2022-12-29T00:49:14;100168.56;;;5.71;100.00
76832;BME280;65792;52.880;13.012;2022-12-29T00:52:03;100173.78;;;5.69;100.00
76832;BME280;65792;52.880;13.012;2022-12-29T00:54:31;100173.19;;;5.64;100.00
76832;BME280;65792;52.880;13.012;2022-12-29T00:56:56;100169.56;;;5.68;100.00
76832;BME280;65792;52.880;13.012;2022-12-29T00:59:22;100174.03;;;5.64;100.00
76832;BME280;65792;52.880;13.012;2022-12-29T01:01:50;100173.47;;;5.75;100.00
76832;BME280;65792;52.880;13.012;2022-12-29T01:04:16;100179.34;;;5.77;100.00
76832;BME280;65792;52.880;13.012;2022-12-29T01:06:42;100170.56;;;5.65;100.00
76832;BME280;65792;52.880;13.012;2022-12-29T01:09:08;100169.56;;;5.68;100.00
76832;BME280;65792;52.880;13.012;2022-12-29T01:11:53;100166.00;;;5.71;100.00
76832;BME280;65792;52.880;13.012;2022-12-29T01:14:19;100171.56;;;5.63;100.00
76832;BME280;65792;52.880;13.012;2022-12-29T01:16:45;100170.56;;;5.65;100.00
76832;BME280;65792;52.880;13.012;2022-12-29T01:19:11;100172.38;;;5.63;100.00
76832;BME280;65792;52.880;13.012;2022-12-29T01:21:37;100169.47;;;5.69;100.00
76832;BME280;65792;52.880;13.012;2022-12-29T01:24:02;100161.13;;;5.66;100.00
76832;BME280;65792;52.880;13.012;2022-12-29T01:26:28;100166.00;;;5.71;100.00
76832;BME280;65792;52.880;13.012;2022-12-29T01:28:53;100156.34;;;5.76;100.00
76832;BME280;65792;52.880;13.012;2022-12-29T01:31:19;100167.91;;;5.83;100.00
76832;BME280;65792;52.880;13.012;2022-12-29T01:33:44;100163.63;;;5.67;100.00
76832;BME280;65792;52.880;13.012;2022-12-29T01:36:15;100167.66;;;5.72;100.00
76832;BME280;65792;52.880;13.012;2022-12-29T01:38:44;100162.03;;;5.81;100.00
76832;BME280;65792;52.880;13.012;2022-12-29T01:41:12;100163.19;;;5.75;100.00
76832;BME280;65792;52.880;13.012;2022-12-29T01:43:52;100171.81;;;5.74;100.00
76832;BME280;65792;52.880;13.012;2022-12-29T01:46:20;100166.44;;;5.79;100.00
76832;BME280;65792;52.880;13.012;2022-12-29T11:34:31;99951.41;;;8.18;100.00
76832;BME280;65792;52.880;13.012;2022-12-29T11:37:13;99938.34;;;8.21;100.00
76832;BME280;65792;52.880;13.012;2022-12-29T11:40:03;99956.56;;;8.18;100.00
76832;BME280;65792;52.880;13.012;2022-12-29T11:42:39;99948.00;;;8.30;100.00
76832;BME280;65792;52.880;13.012;2022-12-29T11:45:16;99936.03;;;8.29;100.00
76832;BME280;65792;52.880;13.012;2022-12-29T11:47:45;99944.41;;;8.32;100.00
76832;BME280;65792;52.880;13.012;2022-12-29T11:50:21;99968.59;;;8.30;100.00
76832;BME280;65792;52.880;13.012;2022-12-29T11:52:49;99983.41;;;8.26;100.00
76832;BME280;65792;52.880;13.012;2022-12-29T11:55:21;99971.06;;;8.31;100.00
76832;BME280;65792;52.880;13.012;2022-12-29T11:57:50;99970.16;;;8.32;100.00
76832;BME280;65792;52.880;13.012;2022-12-29T12:00:19;99977.34;;;8.27;99.12
76832;BME280;65792;52.880;13.012;2022-12-29T12:05:44;99942.47;;;8.11;99.50
76832;BME280;65792;52.880;13.012;2022-12-29T12:08:12;99971.28;;;8.16;99.07
76832;BME280;65792;52.880;13.012;2022-12-29T12:11:17;99961.81;;;8.04;99.89
76832;BME280;65792;52.880;13.012;2022-12-29T12:13:51;99964.19;;;8.07;99.20
76832;BME280;65792;52.880;13.012;2022-12-29T12:16:21;99973.34;;;7.98;100.00
76832;BME280;65792;52.880;13.012;2022-12-29T12:19:20;99981.16;;;7.96;100.00
76832;BME280;65792;52.880;13.012;2022-12-29T12:21:54;99969.63;;;8.02;100.00
76832;BME280;65792;52.880;13.012;2022-12-29T12:24:37;99971.06;;;8.06;100.00
76832;BME280;65792;52.880;13.012;2022-12-29T12:27:20;99956.75;;;8.02;100.00
76832;BME280;65792;52.880;13.012;2022-12-29T12:29:52;99961.91;;;8.27;100.00
76832;BME280;65792;52.880;13.012;2022-12-29T12:32:31;99967.69;;;8.18;100.00
76832;BME280;65792;52.880;13.012;2022-12-29T12:35:01;99960.69;;;8.20;100.00
76832;BME280;65792;52.880;13.012;2022-12-29T12:37:38;99954.50;;;8.36;100.00
76832;BME280;65792;52.880;13.012;2022-12-29T12:51:34;99958.22;;;8.81;97.45
76832;BME280;65792;52.880;13.012;2022-12-29T12:59:42;99958.16;;;8.70;99.81
76832;BME280;65792;52.880;13.012;2022-12-29T13:02:36;99964.69;;;8.62;100.00
76832;BME280;65792;52.880;13.012;2022-12-29T13:05:38;99966.91;;;8.67;100.00
76832;BME280;65792;52.880;13.012;2022-12-29T13:11:01;99976.06;;;8.84;98.88
76832;BME280;65792;52.880;13.012;2022-12-29T13:13:47;99986.88;;;8.76;100.00
76832;BME280;65792;52.880;13.012;2022-12-29T13:30:04;100004.03;;;8.52;100.00
76832;BME280;65792;52.880;13.012;2022-12-29T13:32:49;100018.16;;;8.46;100.00
76832;BME280;65792;52.880;13.012;2022-12-29T13:35:34;100017.94;;;8.37;100.00
76832;BME280;65792;52.880;13.012;2022-12-29T13:38:29;100006.53;;;8.41;100.00
76832;BME280;65792;52.880;13.012;2022-12-29T13:41:11;100009.69;;;8.31;100.00
76832;BME280;65792;52.880;13.012;2022-12-29T13:43:40;100014.94;;;8.30;100.00
76832;BME280;65792;52.880;13.012;2022-12-29T13:46:22;100017.09;;;8.23;100.00
76832;BME280;65792;52.880;13.012;2022-12-29T13:48:52;100013.69;;;8.10;100.00
76832;BME280;65792;52.880;13.012;2022-12-29T13:51:20;100009.34;;;7.98;100.00
76832;BME280;65792;52.880;13.012;2022-12-29T13:59:32;100022.91;;;7.75;100.00
76832;BME280;65792;52.880;13.012;2022-12-29T14:02:31;100024.56;;;7.76;100.00
76832;BME280;65792;52.880;13.012;2022-12-29T14:05:04;100024.94;;;7.70;100.00
76832;BME280;65792;52.880;13.012;2022-12-29T14:07:36;100029.38;;;7.67;100.00
76832;BME280;65792;52.880;13.012;2022-12-29T14:10:04;100036.50;;;7.77;100.00
76832;BME280;65792;52.880;13.012;2022-12-29T14:12:38;100040.19;;;7.85;100.00
76832;BME280;65792;52.880;13.012;2022-12-29T14:17:37;100048.00;;;7.84;100.00
76832;BME280;65792;52.880;13.012;2022-12-29T14:20:06;100060.81;;;7.98;99.63
76832;BME280;65792;52.880;13.012;2022-12-29T14:22:59;100049.00;;;8.08;98.37
76832;BME280;65792;52.880;13.012;2022-12-29T14:31:04;100058.88;;;7.62;99.78
76832;BME280;65792;52.880;13.012;2022-12-29T14:33:32;100053.25;;;7.70;98.92
76832;BME280;65792;52.880;13.012;2022-12-29T14:36:18;100064.84;;;7.62;98.85
76832;BME280;65792;52.880;13.012;2022-12-29T14:38:45;100066.59;;;8.01;95.40
76832;BME280;65792;52.880;13.012;2022-12-29T14:41:40;100067.38;;;7.77;96.89
76832;BME280;65792;52.880;13.012;2022-12-29T14:44:11;100077.41;;;7.67;98.16
76832;BME280;65792;52.880;13.012;2022-12-29T14:46:53;100065.03;;;7.59;97.76
76832;BME280;65792;52.880;13.012;2022-12-29T14:49:26;100074.34;;;7.75;96.05
76832;BME280;65792;52.880;13.012;2022-12-29T14:51:54;100071.19;;;7.57;97.31
76832;BME280;65792;52.880;13.012;2022-12-29T14:57:02;100071.66;;;7.49;97.43
76832;BME280;65792;52.880;13.012;2022-12-29T14:59:30;100076.53;;;7.54;96.70
76832;BME280;65792;52.880;13.012;2022-12-29T15:01:58;100074.84;;;7.26;98.42
76832;BME280;65792;52.880;13.012;2022-12-29T15:04:33;100079.81;;;7.15;98.84
76832;BME280;65792;52.880;13.012;2022-12-29T15:07:02;100088.34;;;7.56;96.34
76832;BME280;65792;52.880;13.012;2022-12-29T15:09:38;100082.00;;;7.35;97.45
76832;BME280;65792;52.880;13.012;2022-12-29T15:12:29;100090.09;;;7.29;97.93
76832;BME280;65792;52.880;13.012;2022-12-29T15:14:57;100088.63;;;7.66;96.36
76832;BME280;65792;52.880;13.012;2022-12-29T15:17:34;100097.66;;;7.45;97.25
76832;BME280;65792;52.880;13.012;2022-12-29T15:20:14;100099.94;;;7.49;97.31
76832;BME280;65792;52.880;13.012;2022-12-29T15:22:49;100099.03;;;7.50;97.55
76832;BME280;65792;52.880;13.012;2022-12-29T15:25:17;100104.41;;;7.33;98.31
76832;BME280;65792;52.880;13.012;2022-12-29T15:27:49;100109.63;;;7.31;97.84
76832;BME280;65792;52.880;13.012;2022-12-29T15:30:15;100117.22;;;7.47;96.92
76832;BME280;65792;52.880;13.012;2022-12-29T15:32:45;100124.16;;;7.32;97.88
76832;BME280;65792;52.880;13.012;2022-12-29T15:35:34;100120.44;;;7.37;97.50
76832;BME280;65792;52.880;13.012;2022-12-29T15:38:01;100123.75;;;7.39;97.34
76832;BME280;65792;52.880;13.012;2022-12-29T15:40:38;100136.00;;;7.35;97.29
76832;BME280;65792;52.880;13.012;2022-12-29T15:45:48;100144.06;;;7.29;98.07
76832;BME280;65792;52.880;13.012;2022-12-29T15:48:18;100146.63;;;7.29;97.96
76832;BME280;65792;52.880;13.012;2022-12-29T15:50:45;100143.25;;;7.28;97.77
76832;BME280;65792;52.880;13.012;2022-12-29T15:53:18;100143.06;;;7.31;98.13
76832;BME280;65792;52.880;13.012;2022-12-29T15:55:43;100148.19;;;7.31;97.79
76832;BME280;65792;52.880;13.012;2022-12-29T15:58:27;100140.91;;;7.38;96.99
76832;BME280;65792;52.880;13.012;2022-12-29T16:00:58;100144.06;;;7.29;97.77
76832;BME280;65792;52.880;13.012;2022-12-29T16:03:29;100149.75;;;7.34;97.73
76832;BME280;65792;52.880;13.012;2022-12-29T16:06:10;100155.09;;;7.17;98.84
76832;BME280;65792;52.880;13.012;2022-12-29T16:09:03;100150.13;;;7.28;97.54
76832;BME280;65792;52.880;13.012;2022-12-29T16:11:43;100148.84;;;7.21;97.73
76832;BME280;65792;52.880;13.012;2022-12-29T16:14:17;100146.09;;;7.24;97.24
76832;BME280;65792;52.880;13.012;2022-12-29T16:16:44;100143.63;;;7.22;97.85
76832;BME280;65792;52.880;13.012;2022-12-29T16:21:55;100158.72;;;7.41;95.71
76832;BME280;65792;52.880;13.012;2022-12-29T16:24:26;100150.31;;;7.25;96.79
76832;BME280;65792;52.880;13.012;2022-12-29T16:27:00;100149.41;;;7.26;97.29
76832;BME280;65792;52.880;13.012;2022-12-29T16:29:29;100146.97;;;7.51;95.18
76832;BME280;65792;52.880;13.012;2022-12-29T16:31:57;100153.63;;;7.27;96.93
76832;BME280;65792;52.880;13.012;2022-12-29T16:34:32;100151.03;;;7.27;96.94
76832;BME280;65792;52.880;13.012;2022-12-29T16:37:29;100151.91;;;7.54;94.64
76832;BME280;65792;52.880;13.012;2022-12-29T16:39:55;100162.59;;;7.34;95.80
76832;BME280;65792;52.880;13.012;2022-12-29T16:42:46;100156.47;;;7.78;92.96
76832;BME280;65792;52.880;13.012;2022-12-29T16:47:48;100160.91;;;7.47;94.86
76832;BME280;65792;52.880;13.012;2022-12-29T16:50:32;100168.66;;;7.33;96.34
76832;BME280;65792;52.880;13.012;2022-12-29T16:52:59;100153.91;;;7.63;94.29
76832;BME280;65792;52.880;13.012;2022-12-29T16:55:25;100161.06;;;7.73;93.02
76832;BME280;65792;52.880;13.012;2022-12-29T16:57:52;100165.31;;;7.86;92.39
76832;BME280;65792;52.880;13.012;2022-12-29T17:00:23;100164.66;;;7.70;93.11
76832;BME280;65792;52.880;13.012;2022-12-29T17:02:52;100168.97;;;7.70;93.00
76832;BME280;65792;52.880;13.012;2022-12-29T17:05:19;100179.94;;;7.45;95.13
76832;BME280;65792;52.880;13.012;2022-12-29T17:07:46;100177.72;;;7.53;94.25
76832;BME280;65792;52.880;13.012;2022-12-29T17:10:12;100174.06;;;7.84;92.28
76832;BME280;65792;52.880;13.012;2022-12-29T17:12:39;100176.16;;;7.50;94.13
76832;BME280;65792;52.880;13.012;2022-12-29T17:15:26;100181.03;;;7.55;94.27
76832;BME280;65792;52.880;13.012;2022-12-29T17:17:59;100183.63;;;7.82;92.55
76832;BME280;65792;52.880;13.012;2022-12-29T17:20:29;100184.03;;;7.76;91.85
76832;BME280;65792;52.880;13.012;2022-12-29T17:22:55;100190.28;;;7.72;92.07
76832;BME280;65792;52.880;13.012;2022-12-29T17:25:41;100189.00;;;7.50;93.49
76832;BME280;65792;52.880;13.012;2022-12-29T17:28:27;100189.75;;;7.52;93.58
76832;BME280;65792;52.880;13.012;2022-12-29T17:30:58;100195.53;;;7.70;91.69
76832;BME280;65792;52.880;13.012;2022-12-29T17:33:24;100200.31;;;7.48;94.03
76832;BME280;65792;52.880;13.012;2022-12-29T17:35:50;100194.59;;;7.71;92.44
76832;BME280;65792;52.880;13.012;2022-12-29T17:38:21;100198.00;;;7.57;93.10
76832;BME280;65792;52.880;13.012;2022-12-29T17:40:48;100201.72;;;7.80;91.45
76832;BME280;65792;52.880;13.012;2022-12-29T17:43:15;100203.16;;;7.72;92.06
76832;BME280;65792;52.880;13.012;2022-12-29T17:45:43;100202.41;;;7.55;93.41
76832;BME280;65792;52.880;13.012;2022-12-29T17:48:13;100200.66;;;7.70;92.07
76832;BME280;65792;52.880;13.012;2022-12-29T17:50:40;100203.16;;;7.43;94.35
76832;BME280;65792;52.880;13.012;2022-12-29T17:53:10;100202.59;;;7.38;94.32
76832;BME280;65792;52.880;13.012;2022-12-29T17:55:36;100198.13;;;7.83;90.66
76832;BME280;65792;52.880;13.012;2022-12-29T17:58:20;100205.00;;;7.41;93.57
76832;BME280;65792;52.880;13.012;2022-12-29T18:00:49;100212.63;;;7.28;94.31
76832;BME280;65792;52.880;13.012;2022-12-29T18:03:18;100206.66;;;7.42;92.92
76832;BME280;65792;52.880;13.012;2022-12-29T18:05:44;100212.78;;;7.40;93.16
76832;BME280;65792;52.880;13.012;2022-12-29T18:08:10;100221.53;;;7.23;94.61
76832;BME280;65792;52.880;13.012;2022-12-29T18:10:37;100218.47;;;7.73;90.76
76832;BME280;65792;52.880;13.012;2022-12-29T18:13:03;100215.38;;;7.40;92.85
76832;BME280;65792;52.880;13.012;2022-12-29T18:15:33;100211.72;;;7.29;93.80
76832;BME280;65792;52.880;13.012;2022-12-29T18:18:02;100212.44;;;7.46;92.97
76832;BME280;65792;52.880;13.012;2022-12-29T18:20:30;100230.88;;;7.38;92.39
76832;BME280;65792;52.880;13.012;2022-12-29T18:22:56;100214.34;;;7.42;91.81
76832;BME280;65792;52.880;13.012;2022-12-29T18:26:11;100222.63;;;7.61;89.68
76832;BME280;65792;52.880;13.012;2022-12-29T18:28:12;100226.34;;;7.84;87.80
76832;BME280;65792;52.880;13.012;2022-12-29T18:30:37;100225.56;;;7.70;88.95
76832;BME280;65792;52.880;13.012;2022-12-29T18:33:03;100239.16;;;7.43;91.57
76832;BME280;65792;52.880;13.012;2022-12-29T18:35:35;100230.97;;;7.51;89.53
76832;BME280;65792;52.880;13.012;2022-12-29T18:38:02;100231.25;;;7.60;89.48
76832;BME280;65792;52.880;13.012;2022-12-29T18:40:30;100232.38;;;7.56;89.52
76832;BME280;65792;52.880;13.012;2022-12-29T18:42:56;100239.72;;;7.34;90.99
76832;BME280;65792;52.880;13.012;2022-12-29T18:45:22;100238.16;;;7.46;89.93
76832;BME280;65792;52.880;13.012;2022-12-29T18:47:48;100242.94;;;7.23;90.97
76832;BME280;65792;52.880;13.012;2022-12-29T18:50:14;100242.28;;;7.20;90.72
76832;BME280;65792;52.880;13.012;2022-12-29T18:52:40;100240.00;;;7.29;89.83
76832;BME280;65792;52.880;13.012;2022-12-29T18:55:19;100242.88;;;6.95;91.81
76832;BME280;65792;52.880;13.012;2022-12-29T18:57:45;100250.28;;;6.85;93.22
76832;BME280;65792;52.880;13.012;2022-12-29T19:00:12;100243.72;;;7.10;91.28
76832;BME280;65792;52.880;13.012;2022-12-29T19:02:39;100247.00;;;6.83;92.91
76832;BME280;65792;52.880;13.012;2022-12-29T19:05:19;100243.06;;;7.06;91.27
76832;BME280;65792;52.880;13.012;2022-12-29T19:07:45;100252.88;;;6.85;92.17
76832;BME280;65792;52.880;13.012;2022-12-29T19:10:11;100244.78;;;6.77;92.30
76832;BME280;65792;52.880;13.012;2022-12-29T19:12:36;100250.31;;;6.99;90.65
76832;BME280;65792;52.880;13.012;2022-12-29T19:15:02;100247.34;;;6.77;92.47
76832;BME280;65792;52.880;13.012;2022-12-29T19:17:34;100254.66;;;6.53;93.38
76832;BME280;65792;52.880;13.012;2022-12-29T19:20:03;100250.34;;;6.70;91.80
76832;BME280;65792;52.880;13.012;2022-12-29T19:22:28;100257.78;;;6.74;91.78
76832;BME280;65792;52.880;13.012;2022-12-29T19:24:54;100262.19;;;6.56;92.95
76832;BME280;65792;52.880;13.012;2022-12-29T19:27:19;100264.06;;;6.39;93.14
76832;BME280;65792;52.880;13.012;2022-12-29T19:29:45;100263.91;;;6.42;93.10
76832;BME280;65792;52.880;13.012;2022-12-29T19:32:10;100260.50;;;6.25;94.46
76832;BME280;65792;52.880;13.012;2022-12-29T19:34:36;100263.81;;;6.27;94.34
76832;BME280;65792;52.880;13.012;2022-12-29T19:37:01;100258.03;;;6.24;93.74
76832;BME280;65792;52.880;13.012;2022-12-29T19:39:27;100267.25;;;6.58;91.89
76832;BME280;65792;52.880;13.012;2022-12-29T19:41:54;100263.66;;;6.30;92.92
76832;BME280;65792;52.880;13.012;2022-12-29T19:44:19;100264.25;;;6.36;92.78
76832;BME280;65792;52.880;13.012;2022-12-29T19:46:45;100270.00;;;6.55;91.78
76832;BME280;65792;52.880;13.012;2022-12-29T19:49:10;100258.88;;;6.70;90.77
76832;BME280;65792;52.880;13.012;2022-12-29T19:51:36;100265.97;;;6.35;93.04
76832;BME280;65792;52.880;13.012;2022-12-29T19:54:01;100264.00;;;6.40;92.66
76832;BME280;65792;52.880;13.012;2022-12-29T19:56:27;100264.91;;;6.39;93.03
76832;BME280;65792;52.880;13.012;2022-12-29T19:58:52;100271.94;;;6.36;93.43
76832;BME280;65792;52.880;13.012;2022-12-29T20:01:21;100275.75;;;6.44;92.88
76832;BME280;65792;52.880;13.012;2022-12-29T20:03:47;100287.34;;;6.81;90.79
76832;BME280;65792;52.880;13.012;2022-12-29T20:06:13;100296.47;;;6.71;91.44
76832;BME280;65792;52.880;13.012;2022-12-29T20:08:40;100298.69;;;6.47;92.97
76832;BME280;65792;52.880;13.012;2022-12-29T20:11:08;100301.72;;;6.54;93.20
76832;BME280;65792;52.880;13.012;2022-12-29T20:13:36;100298.97;;;6.57;92.97
76832;BME280;65792;52.880;13.012;2022-12-29T20:16:04;100315.63;;;6.95;90.53
76832;BME280;65792;52.880;13.012;2022-12-29T20:18:32;100295.75;;;6.53;92.95
76832;BME280;65792;52.880;13.012;2022-12-29T20:21:01;100299.94;;;6.70;91.36
76832;BME280;65792;52.880;13.012;2022-12-29T20:23:27;100296.50;;;6.55;92.25
76832;BME280;65792;52.880;13.012;2022-12-29T20:25:55;100296.84;;;6.33;93.29
76832;BME280;65792;52.880;13.012;2022-12-29T20:28:21;100291.97;;;6.45;92.87
76832;BME280;65792;52.880;13.012;2022-12-29T20:31:11;100298.50;;;6.19;94.14
76832;BME280;65792;52.880;13.012;2022-12-29T20:33:38;100303.41;;;6.23;94.20
76832;BME280;65792;52.880;13.012;2022-12-29T20:36:10;100302.81;;;6.18;94.20
76832;BME280;65792;52.880;13.012;2022-12-29T20:38:37;100298.09;;;6.26;93.90
76832;BME280;65792;52.880;13.012;2022-12-29T20:41:03;100291.47;;;6.22;93.53
76832;BME280;65792;52.880;13.012;2022-12-29T20:43:29;100287.75;;;6.44;92.87
76832;BME280;65792;52.880;13.012;2022-12-29T20:45:54;100282.28;;;6.18;94.07
76832;BME280;65792;52.880;13.012;2022-12-29T20:48:20;100285.19;;;6.12;94.75
76832;BME280;65792;52.880;13.012;2022-12-29T20:50:45;100281.03;;;6.25;94.18
76832;BME280;65792;52.880;13.012;2022-12-29T20:53:11;100270.47;;;6.00;95.01
76832;BME280;65792;52.880;13.012;2022-12-29T20:55:37;100263.34;;;6.05;94.29
76832;BME280;65792;52.880;13.012;2022-12-29T20:58:03;100264.50;;;6.31;93.25
76832;BME280;65792;52.880;13.012;2022-12-29T21:00:29;100266.75;;;6.06;94.10
76832;BME280;65792;52.880;13.012;2022-12-29T21:02:56;100268.06;;;6.28;92.90
76832;BME280;65792;52.880;13.012;2022-12-29T21:05:22;100270.19;;;5.89;94.96
76832;BME280;65792;52.880;13.012;2022-12-29T21:07:49;100268.09;;;5.80;95.49
76832;BME280;65792;52.880;13.012;2022-12-29T21:10:15;100258.72;;;5.96;94.36
76832;BME280;65792;52.880;13.012;2022-12-29T21:12:40;100259.56;;;5.79;95.05
76832;BME280;65792;52.880;13.012;2022-12-29T21:15:06;100265.09;;;5.72;95.39
76832;BME280;65792;52.880;13.012;2022-12-29T21:17:32;100269.22;;;5.74;95.81
76832;BME280;65792;52.880;13.012;2022-12-29T21:19:57;100275.03;;;5.62;96.06
76832;BME280;65792;52.880;13.012;2022-12-29T21:22:23;100279.63;;;5.55;96.94
76832;BME280;65792;52.880;13.012;2022-12-29T21:24:48;100287.53;;;5.84;95.75
76832;BME280;65792;52.880;13.012;2022-12-29T21:27:13;100289.66;;;5.76;96.01
76832;BME280;65792;52.880;13.012;2022-12-29T21:29:39;100282.03;;;5.91;95.38
76832;BME280;65792;52.880;13.012;2022-12-29T21:32:04;100280.63;;;6.17;93.92
76832;BME280;65792;52.880;13.012;2022-12-29T21:34:30;100279.97;;;6.14;93.55
76832;BME280;65792;52.880;13.012;2022-12-29T21:36:56;100287.56;;;6.15;94.15
76832;BME280;65792;52.880;13.012;2022-12-29T21:39:21;100290.66;;;6.06;95.02
76832;BME280;65792;52.880;13.012;2022-12-29T21:41:47;100285.94;;;6.46;93.02
76832;BME280;65792;52.880;13.012;2022-12-29T21:44:12;100291.31;;;6.25;93.84
76832;BME280;65792;52.880;13.012;2022-12-29T21:46:56;100298.16;;;6.09;95.27
76832;BME280;65792;52.880;13.012;2022-12-29T21:49:22;100286.75;;;6.30;94.06
76832;BME280;65792;52.880;13.012;2022-12-29T21:51:49;100286.75;;;6.30;94.02
76832;BME280;65792;52.880;13.012;2022-12-29T21:54:16;100302.97;;;6.31;93.31
76832;BME280;65792;52.880;13.012;2022-12-29T21:57:01;100305.63;;;6.29;93.63
76832;BME280;65792;52.880;13.012;2022-12-29T21:59:26;100308.56;;;6.69;91.54
76832;BME280;65792;52.880;13.012;2022-12-29T22:02:25;100318.75;;;6.86;90.06
76832;BME280;65792;52.880;13.012;2022-12-29T22:05:11;100317.38;;;6.49;92.60
76832;BME280;65792;52.880;13.012;2022-12-29T22:07:56;100334.34;;;6.67;92.17
76832;BME280;65792;52.880;13.012;2022-12-29T22:10:45;100352.25;;;6.99;90.17
76832;BME280;65792;52.880;13.012;2022-12-29T22:13:34;100345.44;;;6.98;90.33
76832;BME280;65792;52.880;13.012;2022-12-29T22:16:05;100352.56;;;6.79;92.55
76832;BME280;65792;52.880;13.012;2022-12-29T22:18:30;100359.28;;;7.11;90.66
76832;BME280;65792;52.880;13.012;2022-12-29T22:20:56;100353.72;;;7.03;91.33
76832;BME280;65792;52.880;13.012;2022-12-29T22:23:21;100344.84;;;6.79;92.48
76832;BME280;65792;52.880;13.012;2022-12-29T22:25:47;100349.00;;;6.81;92.34
76832;BME280;65792;52.880;13.012;2022-12-29T22:28:14;100348.81;;;6.68;93.66
76832;BME280;65792;52.880;13.012;2022-12-29T22:30:40;100350.31;;;6.57;94.16
76832;BME280;65792;52.880;13.012;2022-12-29T22:33:06;100347.44;;;6.47;95.50
76832;BME280;65792;52.880;13.012;2022-12-29T22:35:32;100342.47;;;6.44;96.22
76832;BME280;65792;52.880;13.012;2022-12-29T22:37:57;100346.19;;;6.39;96.42
76832;BME280;65792;52.880;13.012;2022-12-29T22:40:23;100347.25;;;6.66;93.57
76832;BME280;65792;52.880;13.012;2022-12-29T22:42:48;100349.03;;;6.50;95.42
76832;BME280;65792;52.880;13.012;2022-12-29T22:45:14;100358.34;;;6.51;94.68
76832;BME280;65792;52.880;13.012;2022-12-29T22:47:39;100354.31;;;6.47;95.57
76832;BME280;65792;52.880;13.012;2022-12-29T22:50:05;100357.34;;;6.53;94.28
76832;BME280;65792;52.880;13.012;2022-12-29T22:52:31;100362.81;;;6.63;93.49
76832;BME280;65792;52.880;13.012;2022-12-29T22:54:56;100362.41;;;6.55;94.07
76832;BME280;65792;52.880;13.012;2022-12-29T22:57:22;100365.88;;;6.54;93.99
76832;BME280;65792;52.880;13.012;2022-12-29T22:59:47;100368.44;;;6.85;90.86
76832;BME280;65792;52.880;13.012;2022-12-29T23:02:12;100364.47;;;6.80;91.05
76832;BME280;65792;52.880;13.012;2022-12-29T23:04:38;100367.53;;;6.86;90.46
76832;BME280;65792;52.880;13.012;2022-12-29T23:07:03;100378.31;;;6.77;91.03
76832;BME280;65792;52.880;13.012;2022-12-29T23:09:29;100368.53;;;6.68;91.70
76832;BME280;65792;52.880;13.012;2022-12-29T23:11:55;100377.66;;;6.58;92.80
76832;BME280;65792;52.880;13.012;2022-12-29T23:14:20;100381.38;;;6.84;90.89
76832;BME280;65792;52.880;13.012;2022-12-29T23:16:46;100369.44;;;6.83;90.27
76832;BME280;65792;52.880;13.012;2022-12-29T23:19:12;100376.91;;;6.72;91.32
76832;BME280;65792;52.880;13.012;2022-12-29T23:21:38;100372.84;;;6.52;92.84
76832;BME280;65792;52.880;13.012;2022-12-29T23:24:04;100371.94;;;6.53;92.30
76832;BME280;65792;52.880;13.012;2022-12-29T23:26:34;100373.03;;;6.49;91.63
76832;BME280;65792;52.880;13.012;2022-12-29T23:29:02;100377.00;;;6.70;89.64
76832;BME280;65792;52.880;13.012;2022-12-29T23:31:29;100389.56;;;6.59;90.63
76832;BME280;65792;52.880;13.012;2022-12-29T23:33:55;100386.44;;;6.38;91.36
76832;BME280;65792;52.880;13.012;2022-12-29T23:36:21;100392.25;;;6.42;90.59
76832;BME280;65792;52.880;13.012;2022-12-29T23:38:47;100399.19;;;6.55;89.22
76832;BME280;65792;52.880;13.012;2022-12-29T23:41:12;100404.09;;;6.44;88.45
76832;BME280;65792;52.880;13.012;2022-12-29T23:43:38;100408.44;;;6.26;90.40
76832;BME280;65792;52.880;13.012;2022-12-29T23:46:08;100409.78;;;6.33;89.82
76832;BME280;65792;52.880;13.012;2022-12-29T23:48:34;100416.44;;;6.85;85.38
76832;BME280;65792;52.880;13.012;2022-12-29T23:50:59;100424.03;;;6.55;86.63
76832;BME280;65792;52.880;13.012;2022-12-29T23:53:25;100418.75;;;6.89;83.03
76832;BME280;65792;52.880;13.012;2022-12-29T23:55:54;100429.50;;;6.64;84.61
76832;BME280;65792;52.880;13.012;2022-12-29T23:58:20;100433.50;;;6.86;82.59
